Time;durP1;ratioP1;P1;durP2;ratioP2;P2;SDS_P1;SDS_P2;PMS_P1;PMS_P2;Temp;Humidity;BMP_temperature;BMP_pressure;BME280_temperature;BME280_humidity;BME280_pressure;Samples;Min_cycle;Max_cycle;Signal;HPM_P1;HPM_P2
2021/05/04 00:01:09;;;;;;;4.13;0.08;;;13.10;47.60;;;;;;4991021;28;20030;-77
2021/05/04 00:03:35;;;;;;;0.55;0.10;;;13.10;47.70;;;;;;4992335;28;20034;-77
2021/05/04 00:06:01;;;;;;;0.10;0.00;;;13.10;48.40;;;;;;4975501;28;20101;-77
2021/05/04 00:08:27;;;;;;;0.70;0.10;;;13.20;47.90;;;;;;4995079;28;20042;-77
2021/05/04 00:10:53;;;;;;;2.90;0.30;;;13.20;47.90;;;;;;4993169;28;20058;-77
2021/05/04 00:13:20;;;;;;;0.20;0.00;;;13.20;47.90;;;;;;4993394;28;20030;-77
2021/05/04 00:15:46;;;;;;;0.00;0.00;;;13.20;48.00;;;;;;4991254;28;20057;-77
2021/05/04 00:18:12;;;;;;;0.00;0.00;;;13.20;48.10;;;;;;4992015;28;20026;-77
2021/05/04 00:20:38;;;;;;;2.75;0.10;;;13.20;48.20;;;;;;5018910;28;20475;-77
2021/05/04 00:23:04;;;;;;;0.38;0.00;;;13.20;48.30;;;;;;4991040;28;20046;-77
2021/05/04 00:25:30;;;;;;;0.20;0.10;;;13.30;48.40;;;;;;4990893;28;20041;-77
2021/05/04 00:27:56;;;;;;;0.00;0.00;;;13.30;48.50;;;;;;4993170;28;20372;-77
2021/05/04 00:30:23;;;;;;;0.00;0.00;;;13.20;48.50;;;;;;4991362;28;20038;-77
2021/05/04 00:32:49;;;;;;;11.77;0.10;;;13.20;48.60;;;;;;4994283;28;20041;-77
2021/05/04 00:35:15;;;;;;;0.35;0.08;;;13.20;48.70;;;;;;5009272;28;20046;-77
2021/05/04 00:37:41;;;;;;;0.00;0.00;;;13.20;48.80;;;;;;5013538;28;20042;-77
2021/05/04 00:40:08;;;;;;;0.03;0.00;;;13.20;48.80;;;;;;4992778;28;20057;-77
2021/05/04 00:42:34;;;;;;;0.05;0.00;;;13.20;48.90;;;;;;4990423;28;20046;-77
2021/05/04 00:45:00;;;;;;;1.20;0.32;;;13.20;49.00;;;;;;4991042;28;20057;-77
2021/05/04 00:47:26;;;;;;;0.25;0.00;;;13.20;49.20;;;;;;4991762;28;20038;-77
2021/05/04 00:49:52;;;;;;;0.25;0.00;;;13.20;49.20;;;;;;4992896;28;20045;-77
2021/05/04 00:52:18;;;;;;;0.00;0.00;;;13.20;49.30;;;;;;4991754;28;20034;-77
2021/05/04 00:54:44;;;;;;;0.20;0.17;;;13.20;49.40;;;;;;4991305;28;20034;-77
2021/05/04 00:57:11;;;;;;;0.00;0.00;;;13.20;49.50;;;;;;4992044;28;20030;-77
2021/05/04 00:59:37;;;;;;;0.00;0.00;;;13.20;49.60;;;;;;5004092;28;20364;-77
2021/05/04 01:02:03;;;;;;;0.90;0.17;;;13.20;49.70;;;;;;4991886;28;20380;-77
2021/05/04 01:04:29;;;;;;;0.93;0.08;;;13.20;49.70;;;;;;4989674;28;20042;-77
2021/05/04 01:06:56;;;;;;;0.08;0.00;;;13.20;49.70;;;;;;4970551;28;20492;-77
2021/05/04 01:09:22;;;;;;;0.00;0.00;;;13.20;49.90;;;;;;4991813;28;20467;-76
2021/05/04 01:11:48;;;;;;;6.65;0.17;;;13.20;49.90;;;;;;4991757;28;20031;-77
2021/05/04 01:14:15;;;;;;;0.30;0.10;;;13.20;50.10;;;;;;4992220;28;20038;-77
2021/05/04 01:16:42;;;;;;;0.05;0.00;;;13.20;50.20;;;;;;4991657;28;20042;-77
2021/05/04 01:19:09;;;;;;;0.05;0.00;;;13.20;50.30;;;;;;4989156;28;20038;-77
2021/05/04 01:21:35;;;;;;;0.10;0.00;;;13.20;50.40;;;;;;4989352;28;20045;-76
2021/05/04 01:24:02;;;;;;;0.00;0.00;;;13.10;50.50;;;;;;4990947;28;20042;-76
2021/05/04 01:26:28;;;;;;;2.10;0.38;;;13.20;50.60;;;;;;4989502;28;20439;-77
2021/05/04 01:28:54;;;;;;;0.30;0.00;;;13.20;50.70;;;;;;5010730;28;20034;-77
2021/05/04 01:31:20;;;;;;;0.20;0.10;;;13.20;50.70;;;;;;5010918;28;20031;-76
2021/05/04 01:33:46;;;;;;;0.00;0.00;;;13.20;50.80;;;;;;4991463;28;20034;-77
2021/05/04 01:36:12;;;;;;;1.25;0.10;;;13.20;50.80;;;;;;4992186;28;20407;-76
2021/05/04 01:38:38;;;;;;;0.00;0.00;;;13.20;50.90;;;;;;5010029;28;20035;-77
2021/05/04 01:41:05;;;;;;;0.00;0.00;;;13.20;50.90;;;;;;4988804;28;20039;-77
2021/05/04 01:43:31;;;;;;;0.43;0.17;;;13.20;51.00;;;;;;4990018;28;20400;-76
2021/05/04 01:45:57;;;;;;;0.00;0.00;;;13.20;51.20;;;;;;4991034;28;20053;-77
2021/05/04 01:48:23;;;;;;;0.00;0.00;;;13.20;51.20;;;;;;4990092;28;20086;-76
2021/05/04 01:50:49;;;;;;;0.20;0.20;;;13.20;51.30;;;;;;4991805;28;20030;-77
2021/05/04 01:53:15;;;;;;;0.00;0.00;;;13.20;51.40;;;;;;4993441;28;20488;-77
2021/05/04 01:55:41;;;;;;;0.10;0.00;;;13.20;51.50;;;;;;4990866;28;20033;-77
2021/05/04 01:58:07;;;;;;;0.17;0.10;;;13.30;51.60;;;;;;4989544;28;20037;-77
2021/05/04 02:00:33;;;;;;;0.13;0.10;;;13.30;51.60;;;;;;4989960;28;20031;-76
2021/05/04 02:02:59;;;;;;;3.03;0.40;;;13.30;51.70;;;;;;4988967;28;20499;-77
2021/05/04 02:05:25;;;;;;;0.00;0.00;;;13.30;51.60;;;;;;4987706;28;20042;-76
2021/05/04 02:07:51;;;;;;;0.15;0.05;;;13.30;51.70;;;;;;4986251;28;20399;-76
2021/05/04 02:10:17;;;;;;;1.55;0.00;;;13.30;51.70;;;;;;4987201;28;20045;-76
2021/05/04 02:12:44;;;;;;;0.00;0.00;;;13.40;51.80;;;;;;4990925;28;20042;-77
2021/05/04 02:15:10;;;;;;;0.05;0.00;;;13.40;51.90;;;;;;5019894;28;20057;-77
2021/05/04 02:17:36;;;;;;;0.08;0.00;;;13.40;51.90;;;;;;5016743;28;20022;-77
2021/05/04 02:20:04;;;;;;;0.00;0.00;;;13.40;51.90;;;;;;4984004;28;20034;-76
2021/05/04 02:22:31;;;;;;;0.85;0.10;;;13.40;52.00;;;;;;4985774;28;20467;-77
2021/05/04 02:24:57;;;;;;;0.38;0.17;;;13.40;52.10;;;;;;4968226;28;20054;-76
2021/05/04 02:27:23;;;;;;;0.00;0.00;;;13.40;52.20;;;;;;4989498;28;20482;-77
2021/05/04 02:29:49;;;;;;;0.00;0.00;;;13.40;52.20;;;;;;4987049;28;20045;-76
2021/05/04 02:32:15;;;;;;;0.00;0.00;;;13.40;52.30;;;;;;5009477;28;20054;-76
2021/05/04 02:34:41;;;;;;;0.88;0.38;;;13.40;52.40;;;;;;4990248;28;20042;-77
2021/05/04 02:37:07;;;;;;;0.65;0.00;;;13.40;52.40;;;;;;5002093;28;20115;-77
2021/05/04 02:39:33;;;;;;;0.20;0.05;;;13.40;52.50;;;;;;4989577;28;20388;-77
2021/05/04 02:41:59;;;;;;;4.78;0.20;;;13.50;52.60;;;;;;4990063;28;20022;-77
2021/05/04 02:44:25;;;;;;;0.00;0.00;;;13.50;52.60;;;;;;5017706;28;20046;-77
2021/05/04 02:46:51;;;;;;;1.98;0.80;;;13.50;52.60;;;;;;4989720;28;20030;-77
2021/05/04 02:49:17;;;;;;;0.10;0.10;;;13.50;52.60;;;;;;4989345;28;20034;-77
2021/05/04 02:51:44;;;;;;;0.82;0.20;;;13.50;52.60;;;;;;4988066;28;20037;-77
2021/05/04 02:54:10;;;;;;;0.68;0.03;;;13.50;52.70;;;;;;4990613;28;20050;-76
2021/05/04 02:56:36;;;;;;;0.00;0.00;;;13.50;52.60;;;;;;4990813;28;20043;-76
2021/05/04 02:59:02;;;;;;;0.00;0.00;;;13.60;52.70;;;;;;4990314;28;20039;-76
2021/05/04 03:01:28;;;;;;;0.10;0.03;;;13.50;52.80;;;;;;4987680;28;20392;-77
2021/05/04 03:03:55;;;;;;;0.30;0.10;;;13.50;52.80;;;;;;4987741;28;20047;-77
2021/05/04 03:06:21;;;;;;;0.10;0.00;;;13.60;52.90;;;;;;4957315;28;20455;-77
2021/05/04 03:08:47;;;;;;;0.00;0.00;;;13.60;52.90;;;;;;4971541;28;20042;-76
2021/05/04 03:11:13;;;;;;;0.00;0.00;;;13.60;52.80;;;;;;4994398;28;20051;-77
2021/05/04 03:13:39;;;;;;;0.10;0.00;;;13.70;52.90;;;;;;4993818;28;20483;-77
2021/05/04 03:16:05;;;;;;;0.10;0.10;;;13.70;53.00;;;;;;4994405;28;20061;-76
2021/05/04 03:18:31;;;;;;;0.73;0.05;;;13.70;53.00;;;;;;4994179;28;20034;-76
2021/05/04 03:20:57;;;;;;;0.00;0.00;;;13.70;53.10;;;;;;4993672;28;20026;-76
2021/05/04 03:23:23;;;;;;;0.10;0.05;;;13.70;53.10;;;;;;5022763;28;20030;-76
2021/05/04 03:25:50;;;;;;;0.00;0.00;;;13.70;53.20;;;;;;4992615;28;20043;-76
2021/05/04 03:28:16;;;;;;;0.20;0.00;;;13.70;53.20;;;;;;4991605;28;20046;-76
2021/05/04 03:30:42;;;;;;;0.03;0.00;;;13.80;53.20;;;;;;4991813;28;20045;-76
2021/05/04 03:33:08;;;;;;;0.22;0.00;;;13.80;53.30;;;;;;4993053;28;20030;-77
2021/05/04 03:35:35;;;;;;;0.45;0.00;;;13.80;53.30;;;;;;4994903;28;20034;-76
2021/05/04 03:38:01;;;;;;;1.08;0.10;;;13.80;53.40;;;;;;4991630;28;20045;-76
2021/05/04 03:40:27;;;;;;;0.00;0.00;;;13.80;53.40;;;;;;4992533;28;20061;-76
2021/05/04 03:42:53;;;;;;;0.22;0.10;;;13.80;53.50;;;;;;4992376;28;20034;-76
2021/05/04 03:45:19;;;;;;;0.65;0.13;;;13.80;53.60;;;;;;4992088;28;20487;-76
2021/05/04 03:47:46;;;;;;;0.17;0.10;;;13.80;53.60;;;;;;4995255;28;20048;-77
2021/05/04 03:50:21;;;;;;;0.08;0.00;;;13.90;54.30;;;;;;4974435;28;20054;-76
2021/05/04 03:52:48;;;;;;;3.30;1.45;;;13.90;53.70;;;;;;4992263;28;20517;-76
2021/05/04 03:55:14;;;;;;;0.32;0.00;;;13.80;53.80;;;;;;5017919;28;20511;-76
2021/05/04 03:57:40;;;;;;;0.00;0.00;;;13.90;53.90;;;;;;5011601;28;20041;-76
2021/05/04 04:00:07;;;;;;;0.13;0.00;;;13.90;53.90;;;;;;4991973;28;20415;-76
2021/05/04 04:02:34;;;;;;;0.00;0.00;;;13.90;54.10;;;;;;4996866;28;20043;-76
2021/05/04 04:05:00;;;;;;;0.00;0.00;;;13.90;54.10;;;;;;4991911;28;20054;-76
2021/05/04 04:07:26;;;;;;;0.00;0.00;;;13.80;54.10;;;;;;4993260;28;20045;-76
2021/05/04 04:09:52;;;;;;;9.07;0.25;;;13.90;54.10;;;;;;4993389;28;20049;-76
2021/05/04 04:12:18;;;;;;;5.95;0.40;;;13.90;54.20;;;;;;4993043;28;20403;-77
2021/05/04 04:14:44;;;;;;;0.00;0.00;;;13.90;54.20;;;;;;4994370;28;20037;-78
2021/05/04 04:17:10;;;;;;;0.15;0.00;;;13.90;54.20;;;;;;4991553;28;20042;-79
2021/05/04 04:19:36;;;;;;;0.30;0.03;;;13.90;54.30;;;;;;5011371;28;20025;-78
2021/05/04 04:22:02;;;;;;;1.10;0.10;;;13.90;54.40;;;;;;5013194;28;20029;-76
2021/05/04 04:24:29;;;;;;;0.00;0.00;;;13.90;54.50;;;;;;5011225;28;20049;-78
2021/05/04 04:26:55;;;;;;;2.17;0.10;;;13.90;54.50;;;;;;5013421;28;20034;-77
2021/05/04 04:29:21;;;;;;;0.15;0.05;;;13.90;54.60;;;;;;5011960;28;20041;-77
2021/05/04 04:31:47;;;;;;;0.28;0.10;;;13.90;54.60;;;;;;5008681;28;20399;-77
2021/05/04 04:34:13;;;;;;;0.00;0.00;;;13.90;54.80;;;;;;5011264;28;20510;-77
2021/05/04 04:36:39;;;;;;;0.13;0.00;;;13.90;54.90;;;;;;5012883;28;20041;-77
2021/05/04 04:39:05;;;;;;;0.00;0.00;;;13.90;55.10;;;;;;5011328;28;20030;-78
2021/05/04 04:41:32;;;;;;;0.00;0.00;;;13.90;55.10;;;;;;5014383;28;20041;-77
2021/05/04 04:43:58;;;;;;;0.70;0.20;;;13.90;55.20;;;;;;5011087;28;20038;-77
2021/05/04 04:46:24;;;;;;;0.10;0.10;;;13.90;55.40;;;;;;4989853;28;20035;-77
2021/05/04 04:48:50;;;;;;;0.00;0.00;;;13.90;55.50;;;;;;4993567;28;20030;-77
2021/05/04 04:51:16;;;;;;;0.20;0.00;;;13.90;55.60;;;;;;5012528;28;20042;-77
2021/05/04 04:53:42;;;;;;;3.05;0.52;;;13.90;55.60;;;;;;5008580;28;20042;-77
2021/05/04 04:56:08;;;;;;;0.10;0.10;;;13.90;55.60;;;;;;5009554;28;20034;-78
2021/05/04 04:58:34;;;;;;;0.70;0.25;;;13.90;55.70;;;;;;5009194;28;20033;-77
2021/05/04 05:01:00;;;;;;;0.45;0.10;;;13.90;55.80;;;;;;5010629;28;20510;-77
2021/05/04 05:03:26;;;;;;;0.00;0.00;;;13.90;55.90;;;;;;5011185;28;20030;-77
2021/05/04 05:05:53;;;;;;;0.10;0.08;;;13.80;55.90;;;;;;5013585;28;20038;-78
2021/05/04 05:08:19;;;;;;;0.10;0.00;;;13.90;56.00;;;;;;5011749;28;20045;-78
2021/05/04 05:10:45;;;;;;;0.08;0.00;;;13.90;56.00;;;;;;5007174;28;20056;-77
2021/05/04 05:13:11;;;;;;;0.30;0.10;;;13.90;56.10;;;;;;5011520;28;20049;-77
2021/05/04 05:15:40;;;;;;;0.05;0.00;;;13.90;56.20;;;;;;4994955;28;20033;-77
2021/05/04 05:18:06;;;;;;;0.17;0.10;;;13.90;56.20;;;;;;5011236;28;20046;-77
2021/05/04 05:20:33;;;;;;;0.00;0.00;;;13.90;56.30;;;;;;5012256;28;20044;-77
2021/05/04 05:22:59;;;;;;;0.05;0.00;;;13.90;56.30;;;;;;4991818;28;20042;-77
2021/05/04 05:25:26;;;;;;;0.10;0.00;;;13.90;56.40;;;;;;5030336;28;20519;-77
2021/05/04 05:27:52;;;;;;;2.20;0.15;;;14.00;56.50;;;;;;4998092;28;20030;-77
2021/05/04 05:30:19;;;;;;;0.10;0.00;;;14.00;56.60;;;;;;5011284;28;20030;-77
2021/05/04 05:32:45;;;;;;;0.10;0.00;;;14.00;56.70;;;;;;5010788;28;20045;-77
2021/05/04 05:35:11;;;;;;;0.00;0.00;;;14.00;56.70;;;;;;5009037;28;20053;-77
2021/05/04 05:37:37;;;;;;;0.20;0.00;;;14.00;56.80;;;;;;5010111;28;20041;-77
2021/05/04 05:40:04;;;;;;;0.22;0.20;;;14.00;56.80;;;;;;5010244;28;20037;-77
2021/05/04 05:42:30;;;;;;;0.00;0.00;;;14.00;56.80;;;;;;5010996;28;20042;-78
2021/05/04 05:44:56;;;;;;;0.00;0.00;;;14.00;57.50;;;;;;5012203;28;20403;-77
2021/05/04 05:47:22;;;;;;;0.00;0.00;;;14.00;56.90;;;;;;5038684;28;20041;-78
2021/05/04 05:49:48;;;;;;;0.10;0.00;;;14.00;57.00;;;;;;5009974;28;20041;-77
2021/05/04 05:52:14;;;;;;;0.10;0.00;;;14.00;57.20;;;;;;5011251;28;20037;-77
2021/05/04 05:54:40;;;;;;;0.90;0.30;;;14.00;57.30;;;;;;5008891;28;20037;-77
2021/05/04 05:57:06;;;;;;;0.22;0.00;;;13.90;57.40;;;;;;5010581;28;20506;-77
2021/05/04 05:59:32;;;;;;;0.25;0.10;;;13.90;57.50;;;;;;5013121;28;20029;-77
2021/05/04 06:01:59;;;;;;;0.20;0.10;;;13.90;57.60;;;;;;5010334;28;20038;-76
2021/05/04 06:04:25;;;;;;;0.10;0.00;;;13.90;57.60;;;;;;5010788;28;20034;-77
2021/05/04 06:06:51;;;;;;;0.10;0.00;;;14.00;57.70;;;;;;5009848;28;20021;-77
2021/05/04 06:09:17;;;;;;;0.00;0.00;;;14.00;57.90;;;;;;5009635;28;20057;-77
2021/05/04 06:11:43;;;;;;;0.25;0.10;;;13.90;57.90;;;;;;5011580;28;20045;-77
2021/05/04 06:14:09;;;;;;;0.68;0.20;;;14.00;57.90;;;;;;5009437;28;20399;-77
2021/05/04 06:16:35;;;;;;;0.00;0.00;;;14.00;58.10;;;;;;5009070;28;20037;-77
2021/05/04 06:19:01;;;;;;;0.10;0.00;;;14.00;58.30;;;;;;5009267;28;20509;-78
2021/05/04 06:21:28;;;;;;;2.25;0.10;;;13.90;58.30;;;;;;5009560;28;20022;-81
2021/05/04 06:23:54;;;;;;;0.00;0.00;;;13.90;58.40;;;;;;5007319;28;20042;-79
2021/05/04 06:26:21;;;;;;;0.05;0.00;;;13.90;58.50;;;;;;5033265;28;20029;-78
2021/05/04 06:28:48;;;;;;;0.10;0.00;;;13.90;58.70;;;;;;5008894;28;20018;-79
2021/05/04 06:31:16;;;;;;;0.50;0.20;;;13.90;58.70;;;;;;5009161;28;20402;-78
2021/05/04 06:33:42;;;;;;;0.00;0.00;;;13.90;58.90;;;;;;5002255;28;20026;-79
2021/05/04 06:36:09;;;;;;;0.10;0.00;;;13.90;58.90;;;;;;5010660;28;20030;-77
2021/05/04 06:38:36;;;;;;;0.88;0.22;;;13.90;59.00;;;;;;5006659;28;20046;-75
2021/05/04 06:41:02;;;;;;;0.28;0.03;;;13.80;59.20;;;;;;5008230;28;20022;-80
2021/05/04 06:43:28;;;;;;;0.13;0.03;;;13.80;59.20;;;;;;5008742;28;20037;-78
2021/05/04 06:45:55;;;;;;;0.20;0.10;;;13.80;59.30;;;;;;4990912;28;20399;-78
2021/05/04 06:48:21;;;;;;;0.00;0.00;;;13.80;59.40;;;;;;5008632;28;20037;-78
2021/05/04 06:50:47;;;;;;;0.00;0.00;;;13.80;59.50;;;;;;4981659;28;20044;-77
2021/05/04 06:53:13;;;;;;;0.10;0.03;;;13.80;59.60;;;;;;5006550;28;20053;-79
2021/05/04 06:55:39;;;;;;;0.10;0.00;;;13.80;59.60;;;;;;5006660;28;20427;-76
2021/05/04 06:58:05;;;;;;;1.70;0.10;;;13.80;59.70;;;;;;5002963;28;20041;-79
2021/05/04 07:00:31;;;;;;;0.80;0.08;;;13.80;59.70;;;;;;5010769;28;20038;-79
2021/05/04 07:02:57;;;;;;;0.08;0.00;;;13.90;59.80;;;;;;4982576;28;20455;-77
2021/05/04 07:05:23;;;;;;;0.10;0.00;;;14.00;59.80;;;;;;5006992;28;20034;-75
2021/05/04 07:07:49;;;;;;;0.10;0.00;;;14.00;59.80;;;;;;5009396;28;20034;-79
2021/05/04 07:10:15;;;;;;;0.00;0.00;;;14.00;59.90;;;;;;5008339;28;20042;-77
2021/05/04 07:12:42;;;;;;;1.27;0.00;;;14.00;59.90;;;;;;5011700;28;20030;-77
2021/05/04 07:15:08;;;;;;;0.03;0.00;;;14.10;59.90;;;;;;5009952;28;20407;-77
2021/05/04 07:17:34;;;;;;;0.00;0.00;;;14.10;59.90;;;;;;5039931;28;20029;-78
2021/05/04 07:20:01;;;;;;;0.00;0.00;;;14.20;60.00;;;;;;5000817;28;20019;-77
2021/05/04 07:22:28;;;;;;;0.43;0.00;;;14.20;60.00;;;;;;5016141;28;20049;-78
2021/05/04 07:24:54;;;;;;;0.00;0.00;;;14.20;59.90;;;;;;5007534;28;20030;-78
2021/05/04 07:27:20;;;;;;;0.10;0.00;;;14.30;60.10;;;;;;5011091;28;20033;-76
2021/05/04 07:29:47;;;;;;;1.42;0.20;;;14.30;60.10;;;;;;4991480;28;20030;-76
2021/05/04 07:32:16;;;;;;;0.10;0.00;;;14.30;60.30;;;;;;5022039;28;20033;-76
2021/05/04 07:34:43;;;;;;;0.10;0.00;;;14.30;60.40;;;;;;5010243;28;20033;-77
2021/05/04 07:37:09;;;;;;;0.50;0.10;;;14.30;60.50;;;;;;5006462;28;20037;-76
2021/05/04 07:39:35;;;;;;;0.00;0.00;;;14.30;60.50;;;;;;5010218;28;20022;-77
2021/05/04 07:42:02;;;;;;;0.00;0.00;;;14.40;60.60;;;;;;4994724;28;20484;-77
2021/05/04 07:44:28;;;;;;;0.00;0.00;;;14.40;60.70;;;;;;5009652;28;20037;-76
2021/05/04 07:46:54;;;;;;;0.00;0.00;;;14.40;60.80;;;;;;5002347;28;20054;-77
2021/05/04 07:49:30;;;;;;;0.00;0.00;;;14.40;60.80;;;;;;4999737;28;20510;-77
2021/05/04 07:51:57;;;;;;;0.00;0.00;;;14.50;60.90;;;;;;4994181;28;20033;-78
2021/05/04 07:54:23;;;;;;;0.10;0.00;;;14.50;60.90;;;;;;4995236;28;20038;-78
2021/05/04 07:56:49;;;;;;;0.00;0.00;;;14.60;61.00;;;;;;4998942;28;20034;-78
2021/05/04 07:59:15;;;;;;;0.00;0.00;;;14.60;61.10;;;;;;5009820;28;20471;-79
2021/05/04 08:01:41;;;;;;;0.00;0.00;;;14.60;61.10;;;;;;5009643;28;20030;-78
2021/05/04 08:04:07;;;;;;;0.10;0.00;;;14.60;61.20;;;;;;5013297;28;20026;-78
2021/05/04 08:06:33;;;;;;;0.10;0.05;;;14.70;61.30;;;;;;5011283;28;20030;-78
2021/05/04 08:09:00;;;;;;;0.00;0.00;;;14.70;62.10;;;;;;5013389;28;20026;-78
2021/05/04 08:11:29;;;;;;;0.00;0.00;;;14.70;61.30;;;;;;5025458;28;20045;-79
2021/05/04 08:13:55;;;;;;;0.00;0.00;;;14.70;61.60;;;;;;5010322;28;20471;-78
2021/05/04 08:16:21;;;;;;;0.05;0.00;;;14.70;61.70;;;;;;5011152;28;20033;-78
2021/05/04 08:18:50;;;;;;;0.05;0.00;;;14.70;61.80;;;;;;4993038;28;20042;-78
2021/05/04 08:21:18;;;;;;;1.45;0.15;;;14.60;61.90;;;;;;5001416;28;20026;-79
2021/05/04 08:23:45;;;;;;;0.00;0.00;;;14.60;62.10;;;;;;4994454;28;20041;-79
2021/05/04 08:26:12;;;;;;;0.00;0.00;;;14.60;62.50;;;;;;5009709;28;20034;-78
2021/05/04 08:28:38;;;;;;;4.05;0.05;;;14.70;62.60;;;;;;5011033;28;20034;-78
2021/05/04 08:31:04;;;;;;;1.40;0.13;;;14.70;62.50;;;;;;5012453;28;20042;-75
2021/05/04 08:33:30;;;;;;;0.00;0.00;;;14.70;62.30;;;;;;5012446;28;20025;-78
2021/05/04 08:35:56;;;;;;;0.25;0.00;;;14.80;62.30;;;;;;5012482;28;20390;-78
2021/05/04 08:38:22;;;;;;;0.00;0.00;;;14.80;62.30;;;;;;5013316;28;20033;-78
2021/05/04 08:40:51;;;;;;;0.08;0.00;;;14.80;62.30;;;;;;5012896;28;20025;-82
2021/05/04 08:43:21;;;;;;;0.10;0.00;;;14.70;62.40;;;;;;5012165;28;20053;-79
2021/05/04 08:45:48;;;;;;;3.37;0.20;;;14.80;62.60;;;;;;5012163;28;20054;-78
2021/05/04 08:48:14;;;;;;;0.00;0.00;;;14.70;62.60;;;;;;4995078;28;20047;-81
2021/05/04 08:50:40;;;;;;;0.00;0.00;;;14.70;62.60;;;;;;5040388;28;20041;-82
2021/05/04 08:53:07;;;;;;;0.00;0.00;;;14.70;62.60;;;;;;5009260;28;20045;-78
2021/05/04 08:55:34;;;;;;;0.00;0.00;;;14.80;62.80;;;;;;5012075;28;20490;-79
2021/05/04 08:58:00;;;;;;;0.00;0.00;;;14.80;62.90;;;;;;5011790;28;20034;-79
2021/05/04 09:00:26;;;;;;;2.75;0.10;;;15.00;63.80;;;;;;5008911;28;20034;-83
2021/05/04 09:03:01;;;;;;;1.42;0.00;;;15.10;62.90;;;;;;5010103;28;20034;-79
2021/05/04 09:05:53;;;;;;;0.10;0.10;;;15.20;63.00;;;;;;5006218;28;20046;-78
2021/05/04 09:08:35;;;;;;;0.80;0.20;;;15.30;63.10;;;;;;4999342;28;20057;-77
2021/05/04 09:11:29;;;;;;;0.30;0.13;;;15.50;63.10;;;;;;5016725;28;20672;-78
2021/05/04 09:14:09;;;;;;;0.00;0.00;;;15.60;63.20;;;;;;5002382;28;20044;-79
2021/05/04 09:16:49;;;;;;;2.40;0.00;;;15.60;63.20;;;;;;4973253;28;20033;-76
2021/05/04 09:21:45;;;;;;;0.00;0.00;;;15.70;63.40;;;;;;5004534;28;20045;-78
2021/05/04 09:24:40;;;;;;;3.25;0.00;;;15.70;63.50;;;;;;5014536;28;20026;-76
2021/05/04 09:27:08;;;;;;;0.15;0.00;;;15.60;63.70;;;;;;4996288;28;20514;-77
2021/05/04 09:29:40;;;;;;;2.30;0.05;;;15.50;63.90;;;;;;5037515;28;20062;-77
2021/05/04 09:32:22;;;;;;;0.52;0.10;;;15.40;64.10;;;;;;5001856;28;20042;-77
2021/05/04 09:34:53;;;;;;;0.32;0.10;;;15.30;64.30;;;;;;5007593;28;20038;-77
2021/05/04 09:37:24;;;;;;;0.00;0.00;;;15.20;64.40;;;;;;5039569;28;20037;-77
2021/05/04 09:39:50;;;;;;;0.00;0.00;;;15.00;64.70;;;;;;4988188;28;20042;-78
2021/05/04 09:42:16;;;;;;;0.00;0.00;;;14.90;64.80;;;;;;5015846;28;20026;-77
2021/05/04 09:44:49;;;;;;;0.65;0.20;;;14.90;65.10;;;;;;4985861;28;20049;-77
2021/05/04 09:47:20;;;;;;;0.00;0.00;;;14.70;65.10;;;;;;5017636;28;20046;-76
2021/05/04 09:49:46;;;;;;;1.15;0.20;;;14.70;65.10;;;;;;5016732;28;20033;-78
2021/05/04 09:55:11;;;;;;;0.65;0.00;;;14.60;65.30;;;;;;5028985;28;20054;-79
2021/05/04 09:57:39;;;;;;;1.30;0.15;;;14.50;65.10;;;;;;5007603;28;20021;-78
2021/05/04 10:00:13;;;;;;;1.10;0.20;;;14.50;65.10;;;;;;5011019;28;20044;-79
2021/05/04 10:02:39;;;;;;;0.00;0.00;;;14.50;65.10;;;;;;5004524;28;22285;-77
2021/05/04 10:05:07;;;;;;;0.60;0.10;;;14.60;65.00;;;;;;5033224;28;20034;-77
2021/05/04 10:07:33;;;;;;;0.10;0.10;;;14.60;65.00;;;;;;5016690;28;20419;-79
2021/05/04 10:10:00;;;;;;;0.10;0.00;;;14.60;64.80;;;;;;5035973;28;20037;-78
2021/05/04 10:12:28;;;;;;;0.10;0.00;;;14.70;64.80;;;;;;5008433;28;20037;-79
2021/05/04 10:14:56;;;;;;;0.20;0.10;;;14.70;64.50;;;;;;5039996;28;20034;-79
2021/05/04 10:17:22;;;;;;;1.98;0.32;;;14.80;64.30;;;;;;5005348;28;20034;-80
2021/05/04 10:19:49;;;;;;;0.93;0.10;;;14.90;64.20;;;;;;5035066;28;20034;-80
2021/05/04 10:22:17;;;;;;;2.45;0.50;;;14.90;64.10;;;;;;5022877;28;20033;-79
2021/05/04 10:24:43;;;;;;;2.33;0.40;;;14.90;64.20;;;;;;5011681;28;20021;-79
2021/05/04 10:27:09;;;;;;;0.85;0.32;;;14.90;64.20;;;;;;4993565;28;20064;-79
2021/05/04 10:29:37;;;;;;;0.00;0.00;;;14.90;64.20;;;;;;5012801;28;20042;-79
2021/05/04 10:32:03;;;;;;;0.20;0.10;;;14.90;64.40;;;;;;5019628;28;20054;-78
2021/05/04 10:34:34;;;;;;;0.38;0.00;;;15.00;64.20;;;;;;5021888;28;20109;-79
2021/05/04 10:37:21;;;;;;;1.50;0.20;;;15.00;64.30;;;;;;5035120;28;20036;-77
2021/05/04 10:39:47;;;;;;;0.00;0.00;;;14.90;64.50;;;;;;5007845;28;20034;-79
2021/05/04 10:42:16;;;;;;;0.08;0.00;;;14.90;64.40;;;;;;5034823;28;20030;-78
2021/05/04 10:45:06;;;;;;;0.00;0.00;;;14.80;64.40;;;;;;5035489;28;20045;-78
2021/05/04 10:47:42;;;;;;;0.03;0.00;;;14.70;64.40;;;;;;5003133;28;20052;-79
2021/05/04 10:50:12;;;;;;;0.00;0.00;;;14.70;64.50;;;;;;5011039;28;20046;-79
2021/05/04 10:53:00;;;;;;;0.45;0.10;;;14.70;64.60;;;;;;5001248;28;20039;-80
2021/05/04 10:55:52;;;;;;;0.15;0.08;;;14.60;64.50;;;;;;5033509;28;20038;-78
2021/05/04 10:58:20;;;;;;;0.00;0.00;;;14.70;64.40;;;;;;5000449;28;20102;-82
2021/05/04 11:00:53;;;;;;;2.28;0.30;;;14.70;64.20;;;;;;5021182;28;20042;-82
2021/05/04 11:03:35;;;;;;;0.20;0.10;;;14.80;64.10;;;;;;4998557;28;20487;-82
2021/05/04 11:06:08;;;;;;;0.00;0.00;;;15.00;64.00;;;;;;4993684;28;20034;-82
2021/05/04 11:08:40;;;;;;;0.00;0.00;;;15.00;63.70;;;;;;5005186;28;20027;-82
2021/05/04 11:11:33;;;;;;;0.00;0.00;;;15.10;63.60;;;;;;4996825;28;20035;-82
2021/05/04 11:14:06;;;;;;;0.00;0.00;;;15.10;63.60;;;;;;5006771;28;20030;-82
2021/05/04 11:16:45;;;;;;;0.00;0.00;;;15.20;63.40;;;;;;5038154;28;20052;-81
2021/05/04 11:19:12;;;;;;;0.00;0.00;;;15.30;63.30;;;;;;5022247;28;20402;-80
2021/05/04 11:21:52;;;;;;;0.57;0.00;;;15.40;63.00;;;;;;4995001;28;20037;-80
2021/05/04 11:24:23;;;;;;;0.20;0.15;;;15.50;62.80;;;;;;5005379;28;20025;-80
2021/05/04 11:27:14;;;;;;;0.65;0.00;;;15.40;62.60;;;;;;5005549;28;20034;-80
2021/05/04 11:29:40;;;;;;;0.75;0.20;;;15.50;62.60;;;;;;5009597;28;20045;-80
2021/05/04 11:32:10;;;;;;;0.00;0.00;;;15.50;62.60;;;;;;5008238;28;20038;-80
2021/05/04 11:34:40;;;;;;;0.00;0.00;;;15.50;62.50;;;;;;5032058;28;20055;-79
2021/05/04 11:37:29;;;;;;;1.02;0.20;;;15.40;62.40;;;;;;5001644;28;20039;-81
2021/05/04 11:39:59;;;;;;;0.13;0.00;;;15.40;62.40;;;;;;5005462;28;20038;-81
2021/05/04 11:42:37;;;;;;;0.00;0.00;;;15.40;62.40;;;;;;5037213;28;20070;-81
2021/05/04 11:45:08;;;;;;;0.00;0.00;;;15.30;62.50;;;;;;5003880;28;20052;-81
2021/05/04 11:47:35;;;;;;;1.75;0.25;;;15.30;62.70;;;;;;5010562;28;20049;-81
2021/05/04 11:50:06;;;;;;;0.00;0.00;;;15.20;62.80;;;;;;5006196;28;20038;-81
2021/05/04 11:52:34;;;;;;;0.00;0.00;;;15.20;62.90;;;;;;5037371;28;20034;-81
2021/05/04 11:55:20;;;;;;;0.00;0.00;;;15.10;62.90;;;;;;5007142;28;20030;-80
2021/05/04 11:57:48;;;;;;;0.20;0.08;;;15.20;63.00;;;;;;5007609;28;20512;-81
2021/05/04 12:00:21;;;;;;;1.55;0.20;;;15.30;62.80;;;;;;5037897;28;20034;-82
2021/05/04 12:02:47;;;;;;;0.47;0.38;;;15.30;62.60;;;;;;5025979;28;20038;-80
2021/05/04 12:05:16;;;;;;;0.10;0.10;;;15.50;62.50;;;;;;5010724;28;20104;-81
2021/05/04 12:07:44;;;;;;;0.00;0.00;;;15.60;62.30;;;;;;5008398;28;20038;-81
2021/05/04 12:10:16;;;;;;;0.00;0.00;;;15.60;62.20;;;;;;4988326;28;20468;-79
2021/05/04 12:12:46;;;;;;;0.00;0.00;;;15.60;62.20;;;;;;5004504;28;20640;-81
2021/05/04 12:15:14;;;;;;;0.13;0.00;;;15.60;62.20;;;;;;5011547;28;20025;-80
2021/05/04 12:17:40;;;;;;;0.10;0.00;;;15.60;62.30;;;;;;5016200;28;20033;-81
2021/05/04 12:20:16;;;;;;;0.98;0.20;;;15.60;62.40;;;;;;5010587;28;20041;-81
2021/05/04 12:22:43;;;;;;;2.20;0.20;;;15.50;62.40;;;;;;5005138;28;20037;-81
2021/05/04 12:25:10;;;;;;;0.00;0.00;;;15.60;62.40;;;;;;5026134;28;20479;-79
2021/05/04 12:27:37;;;;;;;1.60;0.22;;;15.60;62.30;;;;;;5004185;28;20045;-80
2021/05/04 12:30:04;;;;;;;0.00;0.00;;;15.60;62.20;;;;;;5026548;28;20030;-81
2021/05/04 12:32:30;;;;;;;1.02;0.00;;;15.70;62.10;;;;;;5023420;28;20042;-81
2021/05/04 12:35:30;;;;;;;0.00;0.00;;;15.60;62.00;;;;;;5024112;28;20037;-79
2021/05/04 12:38:09;;;;;;;0.00;0.00;;;15.60;62.00;;;;;;5005509;28;20430;-80
2021/05/04 12:40:37;;;;;;;0.08;0.00;;;15.60;62.00;;;;;;5012395;28;20030;-81
2021/05/04 12:43:18;;;;;;;0.15;0.00;;;15.50;62.00;;;;;;5004911;28;20034;-81
2021/05/04 12:46:08;;;;;;;0.82;0.20;;;15.50;62.00;;;;;;5002467;28;20057;-80
2021/05/04 12:48:35;;;;;;;0.00;0.00;;;15.40;62.00;;;;;;4998857;28;20045;-79
2021/05/04 12:51:06;;;;;;;0.00;0.00;;;15.40;61.90;;;;;;4995157;28;20468;-79
2021/05/04 12:53:37;;;;;;;0.00;0.00;;;15.50;61.90;;;;;;4989188;28;20042;-80
2021/05/04 12:56:07;;;;;;;0.00;0.00;;;15.50;61.80;;;;;;5001931;28;20033;-80
2021/05/04 12:58:33;;;;;;;0.00;0.00;;;15.40;61.70;;;;;;5018672;28;20034;-80